Time;durP1;ratioP1;P1;durP2;ratioP2;P2;SDS_P1;SDS_P2;PMS_P1;PMS_P2;Temp;Humidity;BMP_temperature;BMP_pressure;BME280_temperature;BME280_humidity;BME280_pressure;Samples;Min_cycle;Max_cycle;Signal;HPM_P1;HPM_P2
2021/10/07 00:00:17;;;;;;;1.95;1.40;;;;;;;;;;4997662;28;20199;-81
2021/10/07 00:02:45;;;;;;;1.08;1.08;;;;;;;;;;4997948;28;20211;-80
2021/10/07 00:05:13;;;;;;;1.25;1.13;;;;;;;;;;4998302;28;20204;-80
2021/10/07 00:07:40;;;;;;;1.17;1.17;;;;;;;;;;4998074;28;20741;-80
2021/10/07 00:10:09;;;;;;;1.00;1.00;;;;;;;;;;4997557;28;20227;-80
2021/10/07 00:12:36;;;;;;;1.10;1.10;;;;;;;;;;4997613;28;20613;-80
2021/10/07 00:15:07;;;;;;;1.10;1.10;;;;;;;;;;4997152;28;20208;-81
2021/10/07 00:17:35;;;;;;;1.17;1.08;;;;;;;;;;4997003;28;20231;-80
2021/10/07 00:20:03;;;;;;;1.63;1.52;;;;;;;;;;4997429;28;20209;-81
2021/10/07 00:22:31;;;;;;;2.03;1.92;;;;;;;;;;4997331;28;20211;-82
2021/10/07 00:24:58;;;;;;;2.28;2.03;;;;;;;;;;4997158;28;20203;-81
2021/10/07 00:27:25;;;;;;;2.50;1.60;;;;;;;;;;4996795;28;20216;-81
2021/10/07 00:29:55;;;;;;;2.58;2.38;;;;;;;;;;4996567;28;20223;-80
2021/10/07 00:32:26;;;;;;;1.95;1.75;;;;;;;;;;4995813;28;20208;-82
2021/10/07 00:35:12;;;;;;;1.90;1.67;;;;;;;;;;4996874;28;20651;-82
2021/10/07 00:40:24;;;;;;;1.40;1.30;;;;;;;;;;4997867;28;20339;-81
2021/10/07 00:42:52;;;;;;;2.05;1.30;;;;;;;;;;4997253;28;20208;-81
2021/10/07 00:45:19;;;;;;;1.60;1.50;;;;;;;;;;4997456;28;20631;-81
2021/10/07 00:47:48;;;;;;;2.45;1.20;;;;;;;;;;4996638;28;20224;-81
2021/10/07 00:50:15;;;;;;;1.70;1.60;;;;;;;;;;4996772;28;20639;-82
2021/10/07 00:52:42;;;;;;;2.15;1.52;;;;;;;;;;4997088;28;20215;-81
2021/10/07 00:55:11;;;;;;;1.65;1.55;;;;;;;;;;4996668;28;20204;-81
2021/10/07 00:57:40;;;;;;;1.90;1.80;;;;;;;;;;4996719;28;20228;-82
2021/10/07 01:00:09;;;;;;;1.70;1.60;;;;;;;;;;4997633;28;20203;-82
2021/10/07 01:02:37;;;;;;;1.63;1.52;;;;;;;;;;4997145;28;20191;-82
2021/10/07 01:05:07;;;;;;;1.23;1.20;;;;;;;;;;4997396;28;20218;-82
2021/10/07 01:07:34;;;;;;;1.00;1.00;;;;;;;;;;4997186;28;20238;-82
2021/10/07 01:10:02;;;;;;;1.50;1.40;;;;;;;;;;4997002;28;20219;-82
2021/10/07 01:12:29;;;;;;;2.17;1.90;;;;;;;;;;4997509;28;20569;-82
2021/10/07 01:14:58;;;;;;;1.30;1.20;;;;;;;;;;4996964;28;20562;-82
2021/10/07 01:17:28;;;;;;;1.60;1.50;;;;;;;;;;4996907;28;20718;-81
2021/10/07 01:19:59;;;;;;;1.25;1.20;;;;;;;;;;4996276;28;20199;-82
2021/10/07 01:22:29;;;;;;;1.52;1.42;;;;;;;;;;4996769;28;20700;-82
2021/10/07 01:24:57;;;;;;;1.50;1.40;;;;;;;;;;4996989;28;20214;-81
2021/10/07 01:27:26;;;;;;;1.60;1.50;;;;;;;;;;4997043;28;20725;-82
2021/10/07 01:29:56;;;;;;;1.20;1.20;;;;;;;;;;4996683;28;20227;-82
2021/10/07 01:32:23;;;;;;;1.52;1.42;;;;;;;;;;4996491;28;20223;-82
2021/10/07 01:34:51;;;;;;;1.08;1.08;;;;;;;;;;4996232;28;20210;-81
2021/10/07 01:37:20;;;;;;;1.00;1.00;;;;;;;;;;4996557;28;20235;-82
2021/10/07 01:39:48;;;;;;;0.80;0.80;;;;;;;;;;4996942;28;20204;-82
2021/10/07 01:42:15;;;;;;;1.00;1.00;;;;;;;;;;4995936;28;20211;-81
2021/10/07 01:44:43;;;;;;;1.13;1.13;;;;;;;;;;4996561;28;20209;-81
2021/10/07 01:47:10;;;;;;;1.38;1.27;;;;;;;;;;4996485;28;20219;-82
2021/10/07 01:49:38;;;;;;;1.00;1.00;;;;;;;;;;4996894;28;20224;-82
2021/10/07 01:52:06;;;;;;;0.90;0.90;;;;;;;;;;4996735;28;20200;-81
2021/10/07 01:54:34;;;;;;;0.80;0.80;;;;;;;;;;4997174;28;20211;-82
2021/10/07 01:57:02;;;;;;;0.93;0.90;;;;;;;;;;4997992;28;20223;-81
2021/10/07 01:59:29;;;;;;;1.30;1.20;;;;;;;;;;4996910;28;20203;-81
2021/10/07 02:01:57;;;;;;;1.40;1.30;;;;;;;;;;4996515;28;20585;-82
2021/10/07 02:04:24;;;;;;;1.30;1.20;;;;;;;;;;4995872;28;20207;-81
2021/10/07 02:06:51;;;;;;;1.67;1.33;;;;;;;;;;4995207;28;20227;-80
2021/10/07 02:09:19;;;;;;;1.33;1.23;;;;;;;;;;4994138;28;20576;-80
2021/10/07 02:11:47;;;;;;;1.17;1.17;;;;;;;;;;4994837;28;20211;-81
2021/10/07 02:14:15;;;;;;;1.30;1.20;;;;;;;;;;4995759;28;20211;-82
2021/10/07 02:16:42;;;;;;;1.70;1.30;;;;;;;;;;4995103;28;20227;-81
2021/10/07 02:19:09;;;;;;;1.20;1.10;;;;;;;;;;4995514;28;20203;-80
2021/10/07 02:21:37;;;;;;;1.10;1.10;;;;;;;;;;4996050;28;20206;-81
2021/10/07 02:24:05;;;;;;;0.90;0.90;;;;;;;;;;4995553;28;20688;-82
2021/10/07 02:26:33;;;;;;;0.98;0.98;;;;;;;;;;4998387;28;20203;-81
2021/10/07 02:29:02;;;;;;;0.73;0.73;;;;;;;;;;4996819;28;20587;-81
2021/10/07 02:31:29;;;;;;;0.93;0.93;;;;;;;;;;4996710;28;20593;-82
2021/10/07 02:33:56;;;;;;;0.90;0.90;;;;;;;;;;4996296;28;20199;-81
2021/10/07 02:36:24;;;;;;;0.80;0.80;;;;;;;;;;4996264;28;20208;-81
2021/10/07 02:38:52;;;;;;;0.85;0.85;;;;;;;;;;4995746;28;20204;-82
2021/10/07 02:41:19;;;;;;;0.98;0.98;;;;;;;;;;4994368;28;20207;-81
2021/10/07 02:43:47;;;;;;;1.00;1.00;;;;;;;;;;4993686;28;20200;-81
2021/10/07 02:46:15;;;;;;;1.15;1.15;;;;;;;;;;4993867;28;20568;-81
2021/10/07 02:48:43;;;;;;;1.08;1.08;;;;;;;;;;4993948;28;20232;-81
2021/10/07 02:51:10;;;;;;;1.40;1.30;;;;;;;;;;4994035;28;20234;-82
2021/10/07 02:53:38;;;;;;;1.50;1.40;;;;;;;;;;4993774;28;20204;-82
2021/10/07 02:56:06;;;;;;;2.08;1.88;;;;;;;;;;4998011;28;20651;-81
2021/10/07 02:58:34;;;;;;;0.90;0.90;;;;;;;;;;4998137;28;20652;-82
2021/10/07 03:01:02;;;;;;;1.50;1.40;;;;;;;;;;4998061;28;20291;-82
2021/10/07 03:03:31;;;;;;;1.73;1.63;;;;;;;;;;4997877;28;20654;-81
2021/10/07 03:05:58;;;;;;;1.50;1.40;;;;;;;;;;4997743;28;20208;-82
2021/10/07 03:08:28;;;;;;;1.88;1.77;;;;;;;;;;4997434;28;20228;-82
2021/10/07 03:10:56;;;;;;;1.30;1.20;;;;;;;;;;4997555;28;20236;-80
2021/10/07 03:13:23;;;;;;;1.27;1.23;;;;;;;;;;4997383;28;20586;-81
2021/10/07 03:15:51;;;;;;;1.10;1.10;;;;;;;;;;4997515;28;20227;-82
2021/10/07 03:18:18;;;;;;;1.70;1.60;;;;;;;;;;4996985;28;20239;-81
2021/10/07 03:20:47;;;;;;;1.40;1.30;;;;;;;;;;4997646;28;20207;-81
2021/10/07 03:23:15;;;;;;;0.73;0.73;;;;;;;;;;5020013;28;20201;-81
2021/10/07 03:25:42;;;;;;;1.23;1.17;;;;;;;;;;5016527;28;20198;-81
2021/10/07 03:28:10;;;;;;;1.17;1.17;;;;;;;;;;5014508;28;20727;-80
2021/10/07 03:30:37;;;;;;;1.92;1.02;;;;;;;;;;5015690;28;20211;-81
2021/10/07 03:33:06;;;;;;;0.90;0.90;;;;;;;;;;5016624;28;20210;-81
2021/10/07 03:35:34;;;;;;;1.10;1.10;;;;;;;;;;5016470;28;20211;-81
2021/10/07 03:38:03;;;;;;;1.30;1.20;;;;;;;;;;5016953;28;20234;-81
2021/10/07 03:40:31;;;;;;;1.20;1.20;;;;;;;;;;5016708;28;20650;-80
2021/10/07 03:42:59;;;;;;;1.52;1.42;;;;;;;;;;5016989;28;20190;-81
2021/10/07 03:45:27;;;;;;;1.25;1.17;;;;;;;;;;5017830;28;20195;-81
2021/10/07 03:47:54;;;;;;;1.10;1.10;;;;;;;;;;5017017;28;20215;-81
2021/10/07 03:50:21;;;;;;;1.98;1.85;;;;;;;;;;5029537;28;20198;-82
2021/10/07 03:52:49;;;;;;;1.38;1.35;;;;;;;;;;5036050;28;20206;-81
2021/10/07 03:55:18;;;;;;;1.45;1.38;;;;;;;;;;5036116;28;20186;-80
2021/10/07 03:57:45;;;;;;;1.50;1.40;;;;;;;;;;5036474;28;20248;-81
2021/10/07 04:00:13;;;;;;;1.80;1.70;;;;;;;;;;5036292;28;20195;-81
2021/10/07 04:02:41;;;;;;;1.90;1.80;;;;;;;;;;5036648;28;20206;-82
2021/10/07 04:05:09;;;;;;;1.60;1.50;;;;;;;;;;5035404;28;20198;-80
2021/10/07 04:07:36;;;;;;;1.90;1.75;;;;;;;;;;5033896;28;20226;-80
2021/10/07 04:10:05;;;;;;;1.75;1.50;;;;;;;;;;5036080;28;20194;-81
2021/10/07 04:12:33;;;;;;;0.98;0.98;;;;;;;;;;5035736;28;20222;-81
2021/10/07 04:15:01;;;;;;;1.20;1.20;;;;;;;;;;5035547;28;20202;-80
2021/10/07 04:17:28;;;;;;;1.10;1.10;;;;;;;;;;5035904;28;20234;-81
2021/10/07 04:19:56;;;;;;;1.17;1.17;;;;;;;;;;5035845;28;20665;-81
2021/10/07 04:22:23;;;;;;;1.55;1.45;;;;;;;;;;5035718;28;20710;-80
2021/10/07 04:24:51;;;;;;;1.00;1.00;;;;;;;;;;5035045;28;20198;-80
2021/10/07 04:27:19;;;;;;;1.85;1.75;;;;;;;;;;5035763;28;20219;-81
2021/10/07 04:29:47;;;;;;;1.50;1.40;;;;;;;;;;5027350;28;20206;-80
2021/10/07 04:32:15;;;;;;;1.30;1.30;;;;;;;;;;5015847;28;20234;-81
2021/10/07 04:34:42;;;;;;;1.15;1.13;;;;;;;;;;5015606;28;20199;-81
2021/10/07 04:37:10;;;;;;;1.00;1.00;;;;;;;;;;5015479;28;20595;-79
2021/10/07 04:39:37;;;;;;;1.77;1.67;;;;;;;;;;5015754;28;20233;-80
2021/10/07 04:42:05;;;;;;;2.00;1.90;;;;;;;;;;5019097;28;20206;-82
2021/10/07 04:44:33;;;;;;;1.80;1.70;;;;;;;;;;5015585;28;20272;-82
2021/10/07 04:47:01;;;;;;;2.05;1.83;;;;;;;;;;5013778;28;20229;-81
2021/10/07 04:49:29;;;;;;;1.70;1.60;;;;;;;;;;5006238;28;20294;-81
2021/10/07 04:51:56;;;;;;;1.80;1.70;;;;;;;;;;5016885;28;20219;-81
2021/10/07 04:54:24;;;;;;;1.17;1.17;;;;;;;;;;5014602;28;20206;-80
2021/10/07 04:56:51;;;;;;;1.30;1.20;;;;;;;;;;5015495;28;20322;-81
2021/10/07 04:59:19;;;;;;;2.42;2.10;;;;;;;;;;5015445;28;20206;-82
2021/10/07 05:01:46;;;;;;;1.95;1.85;;;;;;;;;;5015527;28;20230;-81
2021/10/07 05:04:15;;;;;;;2.13;1.92;;;;;;;;;;5014392;28;20202;-80
2021/10/07 05:06:43;;;;;;;1.92;1.83;;;;;;;;;;5018582;28;20215;-80
2021/10/07 05:09:10;;;;;;;1.98;1.88;;;;;;;;;;5015028;28;20208;-79
2021/10/07 05:11:37;;;;;;;1.70;1.60;;;;;;;;;;5005629;28;20215;-81
2021/10/07 05:14:05;;;;;;;2.13;1.92;;;;;;;;;;5014575;28;20202;-81
2021/10/07 05:16:33;;;;;;;3.42;2.08;;;;;;;;;;5014103;28;20195;-81
2021/10/07 05:19:00;;;;;;;1.90;1.80;;;;;;;;;;5014177;28;20740;-82
2021/10/07 05:21:29;;;;;;;2.60;2.40;;;;;;;;;;5014824;28;20202;-83
2021/10/07 05:23:57;;;;;;;2.47;2.30;;;;;;;;;;5015367;28;20195;-82
2021/10/07 05:26:24;;;;;;;2.95;2.75;;;;;;;;;;5014651;28;20198;-82
2021/10/07 05:28:52;;;;;;;2.53;2.33;;;;;;;;;;5014777;28;20195;-82
2021/10/07 05:31:19;;;;;;;1.92;1.83;;;;;;;;;;5000725;28;20203;-83
2021/10/07 05:33:47;;;;;;;1.85;1.75;;;;;;;;;;5010349;28;20241;-81
2021/10/07 05:36:14;;;;;;;2.00;1.90;;;;;;;;;;5016499;28;20219;-82
2021/10/07 05:38:43;;;;;;;2.17;2.08;;;;;;;;;;5032061;28;20218;-83
2021/10/07 05:41:11;;;;;;;2.03;1.92;;;;;;;;;;5019477;28;20570;-82
2021/10/07 05:43:38;;;;;;;2.30;2.10;;;;;;;;;;5014261;28;20195;-83
2021/10/07 05:46:06;;;;;;;2.10;1.95;;;;;;;;;;5021815;28;20680;-84
2021/10/07 05:48:34;;;;;;;2.15;2.05;;;;;;;;;;5014737;28;20210;-83
2021/10/07 05:51:25;;;;;;;2.28;2.10;;;;;;;;;;5030666;28;20197;-83
2021/10/07 05:54:09;;;;;;;3.20;2.92;;;;;;;;;;5009601;28;20195;-82
2021/10/07 05:56:42;;;;;;;2.45;2.25;;;;;;;;;;5014798;28;20210;-82
2021/10/07 05:59:15;;;;;;;2.10;2.00;;;;;;;;;;5007082;28;20199;-83
2021/10/07 06:05:16;;;;;;;1.40;1.30;;;;;;;;;;5012403;28;20203;-83
2021/10/07 06:07:44;;;;;;;1.15;1.15;;;;;;;;;;5014931;28;20594;-85
2021/10/07 06:10:14;;;;;;;1.40;1.30;;;;;;;;;;4999244;28;20195;-84
2021/10/07 06:12:42;;;;;;;1.50;1.40;;;;;;;;;;5030407;28;20234;-84
2021/10/07 06:15:10;;;;;;;1.48;1.38;;;;;;;;;;5016866;28;20195;-83
2021/10/07 06:17:38;;;;;;;1.27;1.17;;;;;;;;;;5014405;28;20245;-83
2021/10/07 06:20:17;;;;;;;1.77;1.67;;;;;;;;;;5013995;28;20198;-82
2021/10/07 06:22:44;;;;;;;2.20;2.10;;;;;;;;;;5015604;28;20214;-84
2021/10/07 06:25:13;;;;;;;2.15;2.05;;;;;;;;;;5014940;28;20703;-83
2021/10/07 06:27:41;;;;;;;2.13;2.00;;;;;;;;;;5015464;28;20227;-84
2021/10/07 06:30:09;;;;;;;1.60;1.50;;;;;;;;;;5015400;28;20184;-84
2021/10/07 06:32:37;;;;;;;2.42;2.22;;;;;;;;;;5008064;28;20307;-81
2021/10/07 06:35:05;;;;;;;2.00;1.88;;;;;;;;;;5013679;28;20199;-81
2021/10/07 06:37:33;;;;;;;1.80;1.70;;;;;;;;;;5013599;28;20233;-80
2021/10/07 06:40:00;;;;;;;1.50;1.40;;;;;;;;;;5015149;28;20578;-81
2021/10/07 06:42:29;;;;;;;2.28;1.65;;;;;;;;;;5014173;28;20266;-81
2021/10/07 06:44:57;;;;;;;1.50;1.40;;;;;;;;;;5014597;28;20203;-81
2021/10/07 06:47:25;;;;;;;1.42;1.35;;;;;;;;;;5013788;28;20218;-79
2021/10/07 06:49:56;;;;;;;1.80;1.70;;;;;;;;;;5015775;28;20192;-80
2021/10/07 06:52:23;;;;;;;1.70;1.60;;;;;;;;;;5033431;28;20233;-80
2021/10/07 06:54:51;;;;;;;1.63;1.52;;;;;;;;;;5032350;28;20198;-81
2021/10/07 06:57:18;;;;;;;2.30;2.10;;;;;;;;;;5033429;28;20230;-83
2021/10/07 06:59:48;;;;;;;1.40;1.30;;;;;;;;;;5033808;28;20206;-81
2021/10/07 07:02:15;;;;;;;2.20;2.00;;;;;;;;;;5034661;28;20206;-82
2021/10/07 07:04:43;;;;;;;1.92;1.80;;;;;;;;;;5018598;28;20203;-79
2021/10/07 07:07:11;;;;;;;3.50;2.83;;;;;;;;;;5015157;28;20223;-85
2021/10/07 07:09:39;;;;;;;3.60;2.60;;;;;;;;;;5010460;28;20199;-80
2021/10/07 07:12:07;;;;;;;2.55;2.35;;;;;;;;;;5012989;28;20670;-80
2021/10/07 07:14:34;;;;;;;2.67;2.20;;;;;;;;;;5013570;28;20187;-79
2021/10/07 07:17:03;;;;;;;2.25;2.15;;;;;;;;;;5027165;28;20225;-79
2021/10/07 07:19:30;;;;;;;1.67;1.48;;;;;;;;;;5016895;28;20195;-79
2021/10/07 07:21:58;;;;;;;2.08;1.88;;;;;;;;;;5028000;28;20194;-80
2021/10/07 07:24:25;;;;;;;1.98;1.80;;;;;;;;;;5033470;28;20202;-81
2021/10/07 07:26:53;;;;;;;2.10;2.00;;;;;;;;;;5032928;28;20215;-79
2021/10/07 07:29:20;;;;;;;1.70;1.60;;;;;;;;;;5023723;28;20201;-80
2021/10/07 07:31:48;;;;;;;2.25;2.03;;;;;;;;;;5015729;28;20207;-80
2021/10/07 07:34:17;;;;;;;1.98;1.88;;;;;;;;;;5029837;28;20226;-80
2021/10/07 07:36:45;;;;;;;3.42;3.13;;;;;;;;;;5024251;28;20219;-80
2021/10/07 07:39:12;;;;;;;4.38;4.00;;;;;;;;;;5012601;28;20191;-80
2021/10/07 07:41:40;;;;;;;2.80;2.60;;;;;;;;;;5028572;28;20183;-80
2021/10/07 07:44:08;;;;;;;3.00;2.78;;;;;;;;;;5016731;28;20583;-81
2021/10/07 07:46:36;;;;;;;3.38;2.92;;;;;;;;;;5017869;28;20195;-81
2021/10/07 07:49:03;;;;;;;3.60;3.30;;;;;;;;;;5015092;28;20207;-81
2021/10/07 07:51:33;;;;;;;3.55;3.35;;;;;;;;;;5014507;28;20199;-80
2021/10/07 07:54:00;;;;;;;3.17;2.88;;;;;;;;;;5012826;28;20231;-80
2021/10/07 07:56:28;;;;;;;3.22;2.92;;;;;;;;;;5014753;28;20657;-81
2021/10/07 07:58:55;;;;;;;3.33;3.00;;;;;;;;;;5017560;28;20662;-81
2021/10/07 08:01:24;;;;;;;3.55;2.85;;;;;;;;;;5023331;28;20191;-81
2021/10/07 08:03:51;;;;;;;2.55;2.35;;;;;;;;;;5003964;28;20206;-81
2021/10/07 08:06:19;;;;;;;4.15;3.85;;;;;;;;;;5009997;28;20195;-81
2021/10/07 08:08:48;;;;;;;4.10;3.70;;;;;;;;;;5015378;28;20225;-80
2021/10/07 08:11:15;;;;;;;5.03;4.53;;;;;;;;;;5025368;28;20203;-80
2021/10/07 08:13:43;;;;;;;3.85;3.55;;;;;;;;;;5010055;28;20604;-81
2021/10/07 08:16:10;;;;;;;3.65;3.35;;;;;;;;;;5014548;28;20202;-81
2021/10/07 08:18:38;;;;;;;3.53;3.22;;;;;;;;;;5013700;28;20230;-81
2021/10/07 08:21:05;;;;;;;3.17;2.88;;;;;;;;;;5012771;28;20261;-80
2021/10/07 08:23:35;;;;;;;2.83;2.63;;;;;;;;;;5026404;28;20585;-80
2021/10/07 08:26:05;;;;;;;3.35;3.05;;;;;;;;;;4997554;28;20254;-80
2021/10/07 08:28:32;;;;;;;2.65;2.45;;;;;;;;;;5014559;28;20226;-80
2021/10/07 08:31:00;;;;;;;4.15;3.75;;;;;;;;;;5014962;28;20187;-81
2021/10/07 08:33:27;;;;;;;4.93;4.32;;;;;;;;;;5002812;28;20226;-80
2021/10/07 08:35:55;;;;;;;4.38;3.97;;;;;;;;;;5003984;28;20211;-80
2021/10/07 08:38:22;;;;;;;4.32;3.92;;;;;;;;;;5013580;28;20218;-80
2021/10/07 08:40:50;;;;;;;3.22;2.92;;;;;;;;;;5007421;28;20199;-80
2021/10/07 08:43:18;;;;;;;3.95;3.63;;;;;;;;;;5004184;28;20195;-80
2021/10/07 08:45:47;;;;;;;3.92;3.53;;;;;;;;;;5005734;28;20287;-81
2021/10/07 08:48:14;;;;;;;2.78;2.58;;;;;;;;;;5015642;28;20223;-80
2021/10/07 08:50:42;;;;;;;3.45;2.80;;;;;;;;;;5002230;28;20188;-81
2021/10/07 08:53:09;;;;;;;5.45;4.95;;;;;;;;;;5013277;28;20203;-80
2021/10/07 08:55:37;;;;;;;4.88;3.90;;;;;;;;;;5006585;28;20282;-81
2021/10/07 08:58:04;;;;;;;6.50;3.58;;;;;;;;;;5004871;28;20318;-81
2021/10/07 09:00:33;;;;;;;5.40;4.65;;;;;;;;;;5009576;28;20192;-80
2021/10/07 09:03:20;;;;;;;5.35;4.63;;;;;;;;;;5024808;28;20186;-81
2021/10/07 09:05:47;;;;;;;4.85;4.35;;;;;;;;;;5021471;28;20193;-81
2021/10/07 09:08:16;;;;;;;5.13;4.55;;;;;;;;;;5019084;28;20215;-81
2021/10/07 09:10:47;;;;;;;5.20;4.70;;;;;;;;;;5010123;28;20192;-79
2021/10/07 09:13:18;;;;;;;5.47;4.55;;;;;;;;;;5008395;28;20671;-80
2021/10/07 09:15:50;;;;;;;3.97;3.47;;;;;;;;;;5021109;28;20211;-81
2021/10/07 09:18:19;;;;;;;3.63;3.33;;;;;;;;;;5026236;28;20237;-81
2021/10/07 09:20:49;;;;;;;2.60;2.40;;;;;;;;;;5010566;28;20200;-79
2021/10/07 09:23:20;;;;;;;2.33;2.13;;;;;;;;;;5001253;28;20210;-81
2021/10/07 09:26:04;;;;;;;3.33;3.03;;;;;;;;;;5010632;28;20199;-80
2021/10/07 09:28:50;;;;;;;2.90;2.70;;;;;;;;;;5009619;28;20214;-79
2021/10/07 09:31:26;;;;;;;3.38;2.97;;;;;;;;;;5014631;28;20245;-82
2021/10/07 09:33:56;;;;;;;3.53;3.22;;;;;;;;;;5024268;28;20225;-82
2021/10/07 09:36:24;;;;;;;3.45;2.97;;;;;;;;;;5033970;28;20196;-82
2021/10/07 09:38:54;;;;;;;2.22;2.03;;;;;;;;;;5019370;28;20208;-81
2021/10/07 09:41:24;;;;;;;2.85;2.65;;;;;;;;;;4998897;28;20210;-81
2021/10/07 09:43:55;;;;;;;4.47;4.07;;;;;;;;;;4994431;28;20295;-82
2021/10/07 09:46:46;;;;;;;3.75;3.40;;;;;;;;;;4995369;28;20192;-82
2021/10/07 09:49:17;;;;;;;2.78;2.58;;;;;;;;;;4995012;28;20254;-81
2021/10/07 09:51:46;;;;;;;5.97;4.50;;;;;;;;;;5003141;28;20199;-81
2021/10/07 09:54:18;;;;;;;4.65;3.88;;;;;;;;;;5014084;28;20229;-81
2021/10/07 09:56:55;;;;;;;3.70;3.40;;;;;;;;;;5014392;28;20219;-80
2021/10/07 09:59:24;;;;;;;5.25;4.75;;;;;;;;;;5014570;28;20194;-81
2021/10/07 10:01:55;;;;;;;5.20;4.70;;;;;;;;;;5014155;28;20203;-81
2021/10/07 10:04:23;;;;;;;4.95;4.28;;;;;;;;;;5012694;28;20653;-80
2021/10/07 10:06:50;;;;;;;4.80;4.40;;;;;;;;;;5014271;28;20229;-82
2021/10/07 10:09:21;;;;;;;6.75;5.35;;;;;;;;;;5006041;28;20214;-80
2021/10/07 10:11:48;;;;;;;5.40;4.75;;;;;;;;;;4994289;28;20207;-80
2021/10/07 10:14:16;;;;;;;5.38;4.88;;;;;;;;;;4994799;28;20223;-81
2021/10/07 10:16:44;;;;;;;5.07;4.57;;;;;;;;;;4994560;28;20310;-79
2021/10/07 10:19:13;;;;;;;5.70;5.00;;;;;;;;;;4994859;28;20211;-81
2021/10/07 10:21:42;;;;;;;5.75;5.25;;;;;;;;;;4995034;28;20214;-81
2021/10/07 10:24:11;;;;;;;5.60;5.10;;;;;;;;;;4995530;28;20203;-82
2021/10/07 10:26:39;;;;;;;5.60;5.10;;;;;;;;;;4995830;28;20290;-80
2021/10/07 10:29:21;;;;;;;5.40;4.70;;;;;;;;;;4996111;28;20218;-82
2021/10/07 10:31:52;;;;;;;4.93;4.53;;;;;;;;;;4996283;28;20183;-80
2021/10/07 10:34:23;;;;;;;10.27;5.15;;;;;;;;;;4995305;28;20192;-81
2021/10/07 10:36:52;;;;;;;3.67;3.38;;;;;;;;;;4995143;28;20236;-81
2021/10/07 10:39:25;;;;;;;3.30;3.00;;;;;;;;;;4995957;28;20196;-82
2021/10/07 10:41:56;;;;;;;3.13;2.75;;;;;;;;;;4996315;28;20200;-81
2021/10/07 10:44:52;;;;;;;3.13;2.90;;;;;;;;;;4996486;28;20203;-81
2021/10/07 10:47:23;;;;;;;2.38;2.28;;;;;;;;;;4992866;28;20717;-81
2021/10/07 10:50:11;;;;;;;1.90;1.80;;;;;;;;;;4996561;28;20210;-82
2021/10/07 10:52:44;;;;;;;2.10;2.00;;;;;;;;;;4996894;28;20215;-80
2021/10/07 10:55:15;;;;;;;1.95;1.85;;;;;;;;;;4995635;28;20612;-82
2021/10/07 10:57:45;;;;;;;2.60;2.40;;;;;;;;;;4995658;28;20726;-81
2021/10/07 11:00:21;;;;;;;1.80;1.70;;;;;;;;;;4996121;28;20195;-82
2021/10/07 11:02:53;;;;;;;2.80;2.60;;;;;;;;;;4995955;28;20192;-81
2021/10/07 11:05:28;;;;;;;2.30;2.10;;;;;;;;;;4996568;28;20545;-82
2021/10/07 11:08:19;;;;;;;2.50;2.40;;;;;;;;;;4995418;28;20227;-82
2021/10/07 11:10:49;;;;;;;2.30;2.20;;;;;;;;;;4996583;28;20560;-83
2021/10/07 11:13:18;;;;;;;3.08;2.78;;;;;;;;;;4996159;28;20271;-82
2021/10/07 11:15:49;;;;;;;2.75;2.55;;;;;;;;;;4997699;28;20219;-82
2021/10/07 11:18:17;;;;;;;3.22;2.80;;;;;;;;;;4998619;28;20611;-82
2021/10/07 11:20:46;;;;;;;3.38;3.13;;;;;;;;;;4999787;28;20732;-82
2021/10/07 11:23:16;;;;;;;2.83;2.63;;;;;;;;;;5000156;28;20278;-82
2021/10/07 11:25:47;;;;;;;2.85;2.65;;;;;;;;;;4998659;28;20210;-82
2021/10/07 11:28:15;;;;;;;2.33;2.13;;;;;;;;;;4999160;28;20718;-82
2021/10/07 11:30:45;;;;;;;3.63;3.35;;;;;;;;;;4999291;28;20254;-81
2021/10/07 11:33:13;;;;;;;3.28;2.97;;;;;;;;;;4999425;28;20206;-82
2021/10/07 11:35:40;;;;;;;3.17;2.97;;;;;;;;;;4999721;28;20251;-82
2021/10/07 11:38:13;;;;;;;2.63;2.42;;;;;;;;;;4999373;28;20306;-81
2021/10/07 11:40:47;;;;;;;2.83;2.50;;;;;;;;;;4999151;28;20207;-82
2021/10/07 11:43:17;;;;;;;3.15;2.95;;;;;;;;;;4998714;28;20271;-82
2021/10/07 11:45:47;;;;;;;2.40;2.20;;;;;;;;;;4999409;28;20208;-82
2021/10/07 11:48:15;;;;;;;2.75;2.50;;;;;;;;;;4999417;28;20235;-82
2021/10/07 11:50:46;;;;;;;2.90;2.28;;;;;;;;;;4998987;28;20295;-82
2021/10/07 11:53:17;;;;;;;3.60;2.85;;;;;;;;;;4999045;28;20271;-82
2021/10/07 11:55:47;;;;;;;3.60;3.22;;;;;;;;;;4998553;28;20215;-82
2021/10/07 11:58:15;;;;;;;3.65;3.35;;;;;;;;;;4998069;28;20224;-81
2021/10/07 12:00:46;;;;;;;3.30;3.00;;;;;;;;;;4995997;28;20587;-81
2021/10/07 12:03:26;;;;;;;2.10;2.00;;;;;;;;;;4995551;28;20689;-81
2021/10/07 12:06:01;;;;;;;2.60;2.40;;;;;;;;;;4995263;28;20188;-81
2021/10/07 12:08:33;;;;;;;2.00;1.90;;;;;;;;;;4995149;28;20310;-81
2021/10/07 12:11:02;;;;;;;2.20;2.08;;;;;;;;;;4995668;28;20199;-81
2021/10/07 12:13:32;;;;;;;1.77;1.67;;;;;;;;;;4995127;28;20180;-81
2021/10/07 12:16:03;;;;;;;2.45;2.25;;;;;;;;;;4995474;28;20223;-81
2021/10/07 12:18:33;;;;;;;3.17;2.88;;;;;;;;;;4994895;28;20236;-80
2021/10/07 12:21:06;;;;;;;2.72;1.90;;;;;;;;;;4995486;28;20188;-80
2021/10/07 12:23:56;;;;;;;2.42;2.22;;;;;;;;;;4995350;28;20200;-80
2021/10/07 12:26:40;;;;;;;2.58;2.38;;;;;;;;;;4994797;28;20652;-80
2021/10/07 12:29:16;;;;;;;2.83;2.50;;;;;;;;;;4995010;28;20199;-81
2021/10/07 12:31:50;;;;;;;2.90;2.70;;;;;;;;;;4995294;28;20254;-80
2021/10/07 12:34:19;;;;;;;2.25;2.05;;;;;;;;;;4995049;28;20210;-80
2021/10/07 12:36:50;;;;;;;2.60;2.40;;;;;;;;;;4994662;28;20605;-82
2021/10/07 12:39:26;;;;;;;2.90;2.65;;;;;;;;;;4995059;28;20188;-81
2021/10/07 12:41:56;;;;;;;3.20;2.80;;;;;;;;;;4994862;28;20199;-79
2021/10/07 12:44:25;;;;;;;3.67;2.85;;;;;;;;;;4995170;28;20186;-81
2021/10/07 12:46:56;;;;;;;2.60;2.22;;;;;;;;;;4995041;28;20223;-82
2021/10/07 12:49:38;;;;;;;1.80;1.70;;;;;;;;;;4995231;28;20200;-82
2021/10/07 12:52:18;;;;;;;1.92;1.83;;;;;;;;;;4994919;28;20203;-82
2021/10/07 12:54:57;;;;;;;1.80;1.70;;;;;;;;;;4995294;28;20584;-83
2021/10/07 12:57:43;;;;;;;3.30;2.28;;;;;;;;;;4994881;28;20290;-81
2021/10/07 13:00:20;;;;;;;2.25;2.15;;;;;;;;;;4994864;28;20188;-82
2021/10/07 13:02:49;;;;;;;2.80;2.60;;;;;;;;;;4995111;28;20210;-81
2021/10/07 13:05:18;;;;;;;1.80;1.70;;;;;;;;;;4994885;28;20210;-82
2021/10/07 13:07:46;;;;;;;2.75;2.05;;;;;;;;;;4994172;28;20223;-81
2021/10/07 13:10:15;;;;;;;1.95;1.85;;;;;;;;;;4994973;28;20184;-82
2021/10/07 13:12:43;;;;;;;1.98;1.70;;;;;;;;;;4994471;28;20283;-81
2021/10/07 13:15:11;;;;;;;2.30;1.73;;;;;;;;;;4994460;28;20292;-81
2021/10/07 13:17:38;;;;;;;2.00;1.80;;;;;;;;;;4994058;28;20623;-80
2021/10/07 13:20:08;;;;;;;1.90;1.80;;;;;;;;;;4994313;28;20694;-82
2021/10/07 13:22:36;;;;;;;1.73;1.63;;;;;;;;;;4994161;28;20214;-81
2021/10/07 13:25:05;;;;;;;1.70;1.60;;;;;;;;;;4994738;28;20214;-81
2021/10/07 13:27:34;;;;;;;2.55;1.65;;;;;;;;;;4994518;28;20235;-81
2021/10/07 13:30:02;;;;;;;1.85;1.75;;;;;;;;;;4994706;28;20207;-83
2021/10/07 13:32:29;;;;;;;2.10;1.60;;;;;;;;;;4994651;28;20587;-81
2021/10/07 13:34:56;;;;;;;1.80;1.70;;;;;;;;;;4997908;28;20206;-82
2021/10/07 13:37:24;;;;;;;2.00;1.90;;;;;;;;;;5013774;28;20254;-82
2021/10/07 13:39:51;;;;;;;1.60;1.50;;;;;;;;;;5013611;28;20207;-81
2021/10/07 13:42:19;;;;;;;1.60;1.50;;;;;;;;;;5014456;28;20206;-80
2021/10/07 13:44:48;;;;;;;2.83;2.58;;;;;;;;;;5013556;28;20720;-81
2021/10/07 13:47:15;;;;;;;1.80;1.70;;;;;;;;;;5013015;28;20223;-81
2021/10/07 13:49:43;;;;;;;2.55;1.85;;;;;;;;;;5013149;28;20261;-81
2021/10/07 13:52:11;;;;;;;1.45;1.35;;;;;;;;;;5013405;28;20296;-81
2021/10/07 13:54:38;;;;;;;1.60;1.50;;;;;;;;;;5013510;28;20183;-80
2021/10/07 13:57:06;;;;;;;2.00;1.75;;;;;;;;;;5013010;28;20227;-81
2021/10/07 13:59:33;;;;;;;1.50;1.40;;;;;;;;;;5013097;28;20206;-80
2021/10/07 14:02:02;;;;;;;2.92;2.13;;;;;;;;;;5013291;28;20186;-81
2021/10/07 14:04:30;;;;;;;2.20;2.10;;;;;;;;;;5013163;28;20207;-81
2021/10/07 14:06:57;;;;;;;4.63;2.47;;;;;;;;;;5012884;28;20230;-81
2021/10/07 14:09:24;;;;;;;1.40;1.30;;;;;;;;;;5012678;28;20207;-81
2021/10/07 14:11:52;;;;;;;1.70;1.60;;;;;;;;;;5012528;28;20210;-81
2021/10/07 14:14:20;;;;;;;1.20;1.20;;;;;;;;;;5013212;28;20205;-80
2021/10/07 14:16:47;;;;;;;1.33;1.25;;;;;;;;;;5012397;28;20222;-81
2021/10/07 14:19:16;;;;;;;0.98;0.98;;;;;;;;;;5013019;28;20566;-81
2021/10/07 14:21:44;;;;;;;1.10;1.10;;;;;;;;;;5012795;28;20207;-81
2021/10/07 14:24:11;;;;;;;0.90;0.90;;;;;;;;;;5012955;28;20209;-80
2021/10/07 14:26:39;;;;;;;1.20;1.20;;;;;;;;;;5012256;28;20588;-82
2021/10/07 14:29:07;;;;;;;1.10;1.00;;;;;;;;;;5012890;28;20206;-80
2021/10/07 14:31:35;;;;;;;1.23;1.13;;;;;;;;;;5015082;28;20599;-81
2021/10/07 14:34:05;;;;;;;1.10;1.10;;;;;;;;;;5012937;28;20192;-81
2021/10/07 14:36:34;;;;;;;1.15;1.00;;;;;;;;;;5012485;28;20689;-80
2021/10/07 14:39:02;;;;;;;0.75;0.75;;;;;;;;;;5012986;28;20632;-81
2021/10/07 14:41:30;;;;;;;0.77;0.77;;;;;;;;;;5012482;28;20192;-82
2021/10/07 14:43:57;;;;;;;1.08;1.08;;;;;;;;;;5013011;28;20280;-81
2021/10/07 14:46:25;;;;;;;2.40;1.48;;;;;;;;;;5012547;28;20282;-80
2021/10/07 14:48:52;;;;;;;2.72;1.85;;;;;;;;;;5012678;28;20238;-81
2021/10/07 14:51:20;;;;;;;1.52;1.42;;;;;;;;;;5015423;28;20203;-81
2021/10/07 14:53:49;;;;;;;1.88;1.77;;;;;;;;;;5016766;28;20587;-80
2021/10/07 14:56:17;;;;;;;1.60;1.50;;;;;;;;;;5017263;28;20206;-79
2021/10/07 14:58:44;;;;;;;0.90;0.90;;;;;;;;;;5016319;28;20607;-80
2021/10/07 15:01:12;;;;;;;1.13;1.13;;;;;;;;;;5015922;28;20199;-81